Sunday, December 16, 2018, 3:08 PM GMT
Back to Local

CYQY, Sydney, N. S.

Location: , , Canada Lat: 46.167
Local Time: 3:08 PM GMT (15:08 GMT) Lon: -60.05
Time Zone: GMT Elev: 183 ft

Show me the last for .
Show Decoded

2018-12-16 14:00 METAR CYQY 161400Z 33015G21KT 15SM BKN028 01/M05 A3015 RMK SC6 SLP216 =
2018-12-16 13:00 METAR CYQY 161300Z 31014KT 15SM BKN031 00/M05 A3014 RMK SC6 SLP212 =
2018-12-16 12:00 METAR CYQY 161200Z 29008KT 15SM FEW025 M01/M05 A3013 RMK SC2 SLP207 =
2018-12-16 11:00 METAR CYQY 161100Z 31014G19KT 15SM FEW024 M01/M05 A3010 RMK CU2 SLP199 =
2018-12-16 10:00 METAR CYQY 161000Z 31010KT 15SM FEW023 M00/M05 A3010 RMK CU1 SLP198 =
2018-12-16 09:00 METAR CYQY 160900Z 31009G16KT 15SM FEW025 M00/M05 A3009 RMK CU1 SLP193 =
2018-12-16 08:00 METAR CYQY 160800Z 34006KT 270V360 15SM FEW026 00/M05 A3007 RMK CU2 SLP186 =
2018-12-16 07:00 METAR CYQY 160700Z 30009G17KT 15SM SCT028 00/M04 A3005 RMK CU4 SLP180 =
2018-12-16 06:00 METAR CYQY 160600Z 32011G20KT 15SM BKN028 01/M04 A3003 RMK CU6 SLP173 =
2018-12-16 05:00 METAR CYQY 160500Z 30014KT 15SM BKN032 01/M03 A2999 RMK CU5 SLP161 =
2018-12-16 04:00 METAR CYQY 160400Z 29010KT 15SM SCT030 01/M03 A2999 RMK CU4 SLP158 =
2018-12-16 03:00 METAR CYQY 160300Z 27007KT 15SM SCT030 00/M04 A2999 RMK CU4 SLP161 =
2018-12-16 02:00 METAR CYQY 160200Z 30008KT 250V350 15SM BKN030 01/M04 A2999 RMK SC6 SLP159 =
2018-12-16 01:00 METAR CYQY 160100Z 30008KT 15SM BKN035 01/M04 A2997 RMK SC5 SLP152 =
2018-12-16 00:00 METAR CYQY 160000Z 31011G18KT 15SM BKN028 02/M03 A2995 RMK SC5 SLP146 =
2018-12-15 23:00 METAR CYQY 152300Z 03007KT 350V060 15SM BKN028 02/M02 A2995 RMK SC6 PRESRR
                 SLP146 =
2018-12-15 22:00 METAR CYQY 152200Z 28016G21KT 10SM BKN028 02/M02 A2990 RMK SC5 PRESFR SLP131 =
2018-12-15 21:00 METAR CYQY 152100Z 28016G23KT 15SM SCT027 02/M01 A2989 RMK SC3 SLP125 =
2018-12-15 20:00 METAR CYQY 152000Z 29017G23KT 15SM BKN026 02/M01 A2988 RMK SC5 SLP121 =
2018-12-15 19:00 METAR CYQY 151900Z 30018G26KT 15SM BKN021 03/M01 A2986 RMK SC7 SLP117 =
2018-12-15 18:00 METAR CYQY 151800Z 29018G26KT 15SM BKN021 04/00 A2982 RMK SC6 SLP104 =
2018-12-15 17:32 METAR CYQY 151732Z 30019G26KT 15SM SCT014 BKN025 03/00 A2982 RMK SC3SC4 SLP104 =
2018-12-15 17:00 METAR CYQY 151700Z 29022G31KT 15SM BKN014 03/01 A2982 RMK SC7 SLP102 =
2018-12-15 16:00 METAR CYQY 151600Z 29016G25KT 15SM OVC013 04/02 A2984 RMK SC8 SLP108 =

Support USWX by starting your Amazon purchase here.